sensor_id;sensor_type;location;lat;lon;timestamp;P1;durP1;ratioP1;P2;durP2;ratioP2
67352;SDS011;54238;52.278;21.056;2022-10-22T00:02:46;36.80;;;22.50;;
67352;SDS011;54238;52.278;21.056;2022-10-22T00:05:13;37.20;;;21.70;;
67352;SDS011;54238;52.278;21.056;2022-10-22T00:07:45;36.10;;;22.70;;
67352;SDS011;54238;52.278;21.056;2022-10-22T00:10:19;37.10;;;21.40;;
67352;SDS011;54238;52.278;21.056;2022-10-22T00:12:48;39.10;;;21.40;;
67352;SDS011;54238;52.278;21.056;2022-10-22T00:15:20;33.60;;;21.00;;
67352;SDS011;54238;52.278;21.056;2022-10-22T00:17:49;37.00;;;20.40;;
67352;SDS011;54238;52.278;21.056;2022-10-22T00:20:18;34.40;;;19.60;;
67352;SDS011;54238;52.278;21.056;2022-10-22T00:22:48;37.40;;;22.20;;
67352;SDS011;54238;52.278;21.056;2022-10-22T00:25:18;35.90;;;22.50;;
67352;SDS011;54238;52.278;21.056;2022-10-22T00:27:47;31.00;;;20.20;;
67352;SDS011;54238;52.278;21.056;2022-10-22T00:30:17;37.80;;;22.20;;
67352;SDS011;54238;52.278;21.056;2022-10-22T00:32:47;32.30;;;21.20;;
67352;SDS011;54238;52.278;21.056;2022-10-22T00:35:19;37.50;;;22.60;;
67352;SDS011;54238;52.278;21.056;2022-10-22T00:37:48;33.50;;;21.40;;
67352;SDS011;54238;52.278;21.056;2022-10-22T00:40:19;37.70;;;22.00;;
67352;SDS011;54238;52.278;21.056;2022-10-22T00:42:46;37.90;;;19.10;;
67352;SDS011;54238;52.278;21.056;2022-10-22T00:45:26;34.90;;;19.60;;
67352;SDS011;54238;52.278;21.056;2022-10-22T00:48:01;36.50;;;21.20;;
67352;SDS011;54238;52.278;21.056;2022-10-22T00:50:35;30.40;;;20.00;;
67352;SDS011;54238;52.278;21.056;2022-10-22T00:53:15;32.10;;;20.90;;
67352;SDS011;54238;52.278;21.056;2022-10-22T00:55:47;29.20;;;19.10;;
67352;SDS011;54238;52.278;21.056;2022-10-22T00:58:25;31.90;;;21.60;;
67352;SDS011;54238;52.278;21.056;2022-10-22T01:01:00;36.50;;;21.30;;
67352;SDS011;54238;52.278;21.056;2022-10-22T01:03:31;29.60;;;19.90;;
67352;SDS011;54238;52.278;21.056;2022-10-22T01:06:00;34.20;;;20.60;;
67352;SDS011;54238;52.278;21.056;2022-10-22T01:08:43;31.60;;;19.80;;
67352;SDS011;54238;52.278;21.056;2022-10-22T01:14:31;31.90;;;21.00;;
67352;SDS011;54238;52.278;21.056;2022-10-22T01:17:33;36.10;;;21.60;;
67352;SDS011;54238;52.278;21.056;2022-10-22T01:22:42;33.20;;;20.30;;
67352;SDS011;54238;52.278;21.056;2022-10-22T01:25:34;31.90;;;20.00;;
67352;SDS011;54238;52.278;21.056;2022-10-22T01:31:19;38.10;;;21.10;;
67352;SDS011;54238;52.278;21.056;2022-10-22T01:33:52;35.10;;;20.90;;
67352;SDS011;54238;52.278;21.056;2022-10-22T01:36:22;41.90;;;22.90;;
67352;SDS011;54238;52.278;21.056;2022-10-22T01:38:53;36.30;;;22.20;;
67352;SDS011;54238;52.278;21.056;2022-10-22T01:41:25;35.80;;;21.40;;
67352;SDS011;54238;52.278;21.056;2022-10-22T01:43:58;29.60;;;19.20;;
67352;SDS011;54238;52.278;21.056;2022-10-22T01:46:26;31.70;;;21.10;;
67352;SDS011;54238;52.278;21.056;2022-10-22T02:10:38;28.10;;;18.50;;
67352;SDS011;54238;52.278;21.056;2022-10-22T02:13:12;30.40;;;19.10;;
67352;SDS011;54238;52.278;21.056;2022-10-22T02:15:44;34.00;;;21.20;;
67352;SDS011;54238;52.278;21.056;2022-10-22T02:18:19;28.80;;;19.60;;
67352;SDS011;54238;52.278;21.056;2022-10-22T02:20:53;35.20;;;21.50;;
67352;SDS011;54238;52.278;21.056;2022-10-22T02:23:21;26.80;;;18.50;;
67352;SDS011;54238;52.278;21.056;2022-10-22T02:25:57;30.50;;;20.10;;
67352;SDS011;54238;52.278;21.056;2022-10-22T02:28:38;29.10;;;21.40;;
67352;SDS011;54238;52.278;21.056;2022-10-22T02:31:22;34.00;;;21.50;;
67352;SDS011;54238;52.278;21.056;2022-10-22T02:34:02;33.10;;;20.20;;
67352;SDS011;54238;52.278;21.056;2022-10-22T02:36:37;33.10;;;21.10;;
67352;SDS011;54238;52.278;21.056;2022-10-22T02:39:10;32.10;;;21.10;;
67352;SDS011;54238;52.278;21.056;2022-10-22T02:41:41;34.10;;;22.20;;
67352;SDS011;54238;52.278;21.056;2022-10-22T02:44:11;29.80;;;20.10;;
67352;SDS011;54238;52.278;21.056;2022-10-22T02:46:41;34.60;;;22.30;;
67352;SDS011;54238;52.278;21.056;2022-10-22T02:49:11;31.00;;;20.00;;
67352;SDS011;54238;52.278;21.056;2022-10-22T02:51:38;26.90;;;17.70;;
67352;SDS011;54238;52.278;21.056;2022-10-22T02:54:08;35.80;;;21.50;;
67352;SDS011;54238;52.278;21.056;2022-10-22T02:56:37;29.60;;;19.00;;
67352;SDS011;54238;52.278;21.056;2022-10-22T02:59:04;31.90;;;20.60;;
67352;SDS011;54238;52.278;21.056;2022-10-22T03:01:31;30.10;;;19.30;;
67352;SDS011;54238;52.278;21.056;2022-10-22T03:04:00;33.30;;;21.00;;
67352;SDS011;54238;52.278;21.056;2022-10-22T03:06:30;32.40;;;20.30;;
67352;SDS011;54238;52.278;21.056;2022-10-22T03:08:57;26.80;;;19.10;;
67352;SDS011;54238;52.278;21.056;2022-10-22T03:11:27;31.20;;;21.10;;
67352;SDS011;54238;52.278;21.056;2022-10-22T03:13:59;31.10;;;21.00;;
67352;SDS011;54238;52.278;21.056;2022-10-22T03:16:28;31.00;;;20.60;;
67352;SDS011;54238;52.278;21.056;2022-10-22T03:18:57;32.60;;;21.60;;
67352;SDS011;54238;52.278;21.056;2022-10-22T03:21:37;28.00;;;19.70;;
67352;SDS011;54238;52.278;21.056;2022-10-22T03:24:13;29.10;;;18.00;;
67352;SDS011;54238;52.278;21.056;2022-10-22T03:26:46;31.80;;;21.10;;
67352;SDS011;54238;52.278;21.056;2022-10-22T03:29:20;34.40;;;20.70;;
67352;SDS011;54238;52.278;21.056;2022-10-22T03:31:53;29.40;;;19.90;;
67352;SDS011;54238;52.278;21.056;2022-10-22T03:34:26;28.90;;;21.00;;
67352;SDS011;54238;52.278;21.056;2022-10-22T03:36:55;28.20;;;19.30;;
67352;SDS011;54238;52.278;21.056;2022-10-22T03:39:27;28.60;;;18.90;;
67352;SDS011;54238;52.278;21.056;2022-10-22T03:42:02;25.90;;;18.10;;
67352;SDS011;54238;52.278;21.056;2022-10-22T03:44:36;26.10;;;18.70;;
67352;SDS011;54238;52.278;21.056;2022-10-22T03:47:07;25.10;;;18.50;;
67352;SDS011;54238;52.278;21.056;2022-10-22T03:49:39;28.50;;;18.50;;
67352;SDS011;54238;52.278;21.056;2022-10-22T03:52:12;22.30;;;17.00;;
67352;SDS011;54238;52.278;21.056;2022-10-22T03:54:44;26.90;;;18.40;;
67352;SDS011;54238;52.278;21.056;2022-10-22T03:57:16;26.90;;;18.90;;
67352;SDS011;54238;52.278;21.056;2022-10-22T03:59:45;25.90;;;20.00;;
67352;SDS011;54238;52.278;21.056;2022-10-22T04:02:16;31.20;;;21.10;;
67352;SDS011;54238;52.278;21.056;2022-10-22T04:04:48;27.00;;;18.30;;
67352;SDS011;54238;52.278;21.056;2022-10-22T04:07:19;25.40;;;17.20;;
67352;SDS011;54238;52.278;21.056;2022-10-22T04:09:51;26.90;;;18.20;;
67352;SDS011;54238;52.278;21.056;2022-10-22T04:12:23;28.50;;;18.30;;
67352;SDS011;54238;52.278;21.056;2022-10-22T04:14:52;29.40;;;19.10;;
67352;SDS011;54238;52.278;21.056;2022-10-22T04:17:25;26.60;;;18.30;;
67352;SDS011;54238;52.278;21.056;2022-10-22T04:19:54;27.30;;;18.40;;
67352;SDS011;54238;52.278;21.056;2022-10-22T04:22:23;19.60;;;12.80;;
67352;SDS011;54238;52.278;21.056;2022-10-22T04:24:52;24.70;;;16.00;;
67352;SDS011;54238;52.278;21.056;2022-10-22T04:27:24;25.70;;;17.50;;
67352;SDS011;54238;52.278;21.056;2022-10-22T04:32:25;25.30;;;18.20;;
67352;SDS011;54238;52.278;21.056;2022-10-22T04:34:53;23.10;;;17.60;;
67352;SDS011;54238;52.278;21.056;2022-10-22T04:37:22;25.30;;;18.40;;
67352;SDS011;54238;52.278;21.056;2022-10-22T04:39:49;25.10;;;17.60;;
67352;SDS011;54238;52.278;21.056;2022-10-22T04:42:18;22.70;;;17.00;;
67352;SDS011;54238;52.278;21.056;2022-10-22T04:44:45;27.50;;;19.70;;
67352;SDS011;54238;52.278;21.056;2022-10-22T04:47:17;25.60;;;17.90;;
67352;SDS011;54238;52.278;21.056;2022-10-22T04:49:44;25.80;;;17.70;;
67352;SDS011;54238;52.278;21.056;2022-10-22T04:52:10;28.00;;;18.50;;
67352;SDS011;54238;52.278;21.056;2022-10-22T04:54:40;25.20;;;17.90;;
67352;SDS011;54238;52.278;21.056;2022-10-22T04:57:07;24.70;;;18.20;;
67352;SDS011;54238;52.278;21.056;2022-10-22T04:59:34;25.00;;;17.50;;
67352;SDS011;54238;52.278;21.056;2022-10-22T05:02:01;21.40;;;16.20;;
67352;SDS011;54238;52.278;21.056;2022-10-22T05:04:35;21.50;;;15.10;;
67352;SDS011;54238;52.278;21.056;2022-10-22T05:07:04;21.20;;;15.20;;
67352;SDS011;54238;52.278;21.056;2022-10-22T05:09:36;19.20;;;12.80;;
67352;SDS011;54238;52.278;21.056;2022-10-22T05:12:05;21.50;;;15.70;;
67352;SDS011;54238;52.278;21.056;2022-10-22T05:14:32;23.20;;;18.10;;
67352;SDS011;54238;52.278;21.056;2022-10-22T05:16:59;25.50;;;18.40;;
67352;SDS011;54238;52.278;21.056;2022-10-22T05:19:29;20.60;;;13.80;;
67352;SDS011;54238;52.278;21.056;2022-10-22T05:22:01;25.70;;;17.30;;
67352;SDS011;54238;52.278;21.056;2022-10-22T05:24:33;26.10;;;18.00;;
67352;SDS011;54238;52.278;21.056;2022-10-22T05:27:02;25.20;;;16.60;;
67352;SDS011;54238;52.278;21.056;2022-10-22T05:29:32;21.90;;;15.60;;
67352;SDS011;54238;52.278;21.056;2022-10-22T05:31:59;26.20;;;17.90;;
67352;SDS011;54238;52.278;21.056;2022-10-22T05:34:28;23.30;;;15.40;;
67352;SDS011;54238;52.278;21.056;2022-10-22T05:36:58;22.00;;;16.50;;
67352;SDS011;54238;52.278;21.056;2022-10-22T05:39:25;22.70;;;16.20;;
67352;SDS011;54238;52.278;21.056;2022-10-22T05:41:55;24.60;;;16.70;;
67352;SDS011;54238;52.278;21.056;2022-10-22T05:44:22;20.60;;;15.70;;
67352;SDS011;54238;52.278;21.056;2022-10-22T05:46:49;22.30;;;16.40;;
67352;SDS011;54238;52.278;21.056;2022-10-22T05:49:18;24.80;;;18.00;;
67352;SDS011;54238;52.278;21.056;2022-10-22T05:51:49;30.10;;;19.80;;
67352;SDS011;54238;52.278;21.056;2022-10-22T05:54:18;31.20;;;18.30;;
67352;SDS011;54238;52.278;21.056;2022-10-22T05:56:51;22.90;;;14.60;;
67352;SDS011;54238;52.278;21.056;2022-10-22T05:59:20;20.50;;;14.60;;
67352;SDS011;54238;52.278;21.056;2022-10-22T06:01:49;27.90;;;16.50;;
67352;SDS011;54238;52.278;21.056;2022-10-22T06:04:17;25.60;;;15.40;;
67352;SDS011;54238;52.278;21.056;2022-10-22T06:06:50;25.80;;;17.70;;
67352;SDS011;54238;52.278;21.056;2022-10-22T06:09:29;23.50;;;16.20;;
67352;SDS011;54238;52.278;21.056;2022-10-22T06:12:01;24.40;;;16.80;;
67352;SDS011;54238;52.278;21.056;2022-10-22T06:14:29;27.10;;;16.40;;
67352;SDS011;54238;52.278;21.056;2022-10-22T06:16:59;28.30;;;17.70;;
67352;SDS011;54238;52.278;21.056;2022-10-22T06:19:28;26.50;;;17.70;;
67352;SDS011;54238;52.278;21.056;2022-10-22T06:22:00;29.90;;;17.80;;
67352;SDS011;54238;52.278;21.056;2022-10-22T06:24:29;26.40;;;18.10;;
67352;SDS011;54238;52.278;21.056;2022-10-22T06:26:56;27.60;;;18.70;;
67352;SDS011;54238;52.278;21.056;2022-10-22T06:29:25;28.60;;;18.30;;
67352;SDS011;54238;52.278;21.056;2022-10-22T06:31:52;21.00;;;14.30;;
67352;SDS011;54238;52.278;21.056;2022-10-22T06:34:21;25.20;;;18.30;;
67352;SDS011;54238;52.278;21.056;2022-10-22T06:36:53;25.60;;;17.60;;
67352;SDS011;54238;52.278;21.056;2022-10-22T06:39:20;24.20;;;15.70;;
67352;SDS011;54238;52.278;21.056;2022-10-22T06:41:49;25.00;;;17.90;;
67352;SDS011;54238;52.278;21.056;2022-10-22T06:44:18;24.10;;;16.00;;
67352;SDS011;54238;52.278;21.056;2022-10-22T06:46:49;24.50;;;16.00;;
67352;SDS011;54238;52.278;21.056;2022-10-22T06:49:19;25.20;;;16.10;;
67352;SDS011;54238;52.278;21.056;2022-10-22T06:51:51;24.40;;;16.70;;
67352;SDS011;54238;52.278;21.056;2022-10-22T06:54:26;26.20;;;17.60;;
67352;SDS011;54238;52.278;21.056;2022-10-22T06:56:53;25.90;;;18.30;;
67352;SDS011;54238;52.278;21.056;2022-10-22T06:59:47;26.60;;;16.60;;
67352;SDS011;54238;52.278;21.056;2022-10-22T07:02:17;24.50;;;15.80;;
67352;SDS011;54238;52.278;21.056;2022-10-22T07:04:44;25.50;;;17.10;;
67352;SDS011;54238;52.278;21.056;2022-10-22T07:07:11;28.00;;;16.40;;
67352;SDS011;54238;52.278;21.056;2022-10-22T07:09:40;25.40;;;17.70;;
67352;SDS011;54238;52.278;21.056;2022-10-22T07:12:15;27.40;;;17.20;;
67352;SDS011;54238;52.278;21.056;2022-10-22T07:14:54;25.20;;;17.40;;
67352;SDS011;54238;52.278;21.056;2022-10-22T07:17:23;26.20;;;18.00;;
67352;SDS011;54238;52.278;21.056;2022-10-22T07:22:50;28.10;;;17.30;;
67352;SDS011;54238;52.278;21.056;2022-10-22T07:25:17;26.30;;;17.10;;
67352;SDS011;54238;52.278;21.056;2022-10-22T07:27:53;21.70;;;14.30;;
67352;SDS011;54238;52.278;21.056;2022-10-22T07:30:20;22.50;;;16.40;;
67352;SDS011;54238;52.278;21.056;2022-10-22T07:32:49;25.00;;;16.40;;
67352;SDS011;54238;52.278;21.056;2022-10-22T07:35:19;24.40;;;17.50;;
67352;SDS011;54238;52.278;21.056;2022-10-22T07:37:46;21.70;;;15.40;;
67352;SDS011;54238;52.278;21.056;2022-10-22T07:40:17;26.20;;;14.80;;
67352;SDS011;54238;52.278;21.056;2022-10-22T07:42:44;28.50;;;17.10;;
67352;SDS011;54238;52.278;21.056;2022-10-22T07:45:13;25.30;;;16.20;;
67352;SDS011;54238;52.278;21.056;2022-10-22T07:47:43;30.50;;;18.10;;
67352;SDS011;54238;52.278;21.056;2022-10-22T07:50:15;26.90;;;18.00;;
67352;SDS011;54238;52.278;21.056;2022-10-22T07:52:45;25.10;;;17.00;;
67352;SDS011;54238;52.278;21.056;2022-10-22T07:55:12;25.50;;;16.90;;
67352;SDS011;54238;52.278;21.056;2022-10-22T07:57:42;29.60;;;18.00;;
67352;SDS011;54238;52.278;21.056;2022-10-22T08:00:13;22.00;;;16.30;;
67352;SDS011;54238;52.278;21.056;2022-10-22T08:02:43;30.20;;;18.00;;
67352;SDS011;54238;52.278;21.056;2022-10-22T08:05:10;24.50;;;17.80;;
67352;SDS011;54238;52.278;21.056;2022-10-22T08:07:43;24.40;;;16.60;;
67352;SDS011;54238;52.278;21.056;2022-10-22T08:10:12;23.10;;;14.40;;
67352;SDS011;54238;52.278;21.056;2022-10-22T08:12:44;27.00;;;17.90;;
67352;SDS011;54238;52.278;21.056;2022-10-22T08:15:13;29.10;;;17.90;;
67352;SDS011;54238;52.278;21.056;2022-10-22T08:20:14;25.20;;;16.10;;
67352;SDS011;54238;52.278;21.056;2022-10-22T08:22:44;24.70;;;17.90;;
67352;SDS011;54238;52.278;21.056;2022-10-22T08:25:14;27.00;;;18.40;;
67352;SDS011;54238;52.278;21.056;2022-10-22T08:27:46;21.90;;;15.60;;
67352;SDS011;54238;52.278;21.056;2022-10-22T08:30:20;24.10;;;18.00;;
67352;SDS011;54238;52.278;21.056;2022-10-22T08:32:49;25.90;;;18.80;;
67352;SDS011;54238;52.278;21.056;2022-10-22T08:35:20;22.90;;;16.00;;
67352;SDS011;54238;52.278;21.056;2022-10-22T08:37:49;28.20;;;17.10;;
67352;SDS011;54238;52.278;21.056;2022-10-22T08:40:29;22.10;;;16.90;;
67352;SDS011;54238;52.278;21.056;2022-10-22T08:48:49;29.90;;;18.10;;
67352;SDS011;54238;52.278;21.056;2022-10-22T08:51:24;27.50;;;18.00;;
67352;SDS011;54238;52.278;21.056;2022-10-22T08:56:43;22.60;;;16.50;;
67352;SDS011;54238;52.278;21.056;2022-10-22T08:59:22;22.60;;;15.10;;
67352;SDS011;54238;52.278;21.056;2022-10-22T09:01:55;25.10;;;18.00;;
67352;SDS011;54238;52.278;21.056;2022-10-22T09:07:44;28.00;;;19.50;;
67352;SDS011;54238;52.278;21.056;2022-10-22T09:10:20;28.10;;;17.00;;
67352;SDS011;54238;52.278;21.056;2022-10-22T09:12:50;32.50;;;19.10;;
67352;SDS011;54238;52.278;21.056;2022-10-22T09:15:19;30.50;;;18.10;;
67352;SDS011;54238;52.278;21.056;2022-10-22T09:20:47;32.00;;;18.80;;
67352;SDS011;54238;52.278;21.056;2022-10-22T09:23:54;30.10;;;17.60;;
67352;SDS011;54238;52.278;21.056;2022-10-22T09:26:22;32.70;;;18.50;;
67352;SDS011;54238;52.278;21.056;2022-10-22T09:28:50;28.60;;;16.90;;
67352;SDS011;54238;52.278;21.056;2022-10-22T09:31:20;23.80;;;16.30;;
67352;SDS011;54238;52.278;21.056;2022-10-22T09:33:49;33.40;;;18.20;;
67352;SDS011;54238;52.278;21.056;2022-10-22T09:36:21;27.20;;;17.70;;
67352;SDS011;54238;52.278;21.056;2022-10-22T09:38:50;36.30;;;20.60;;
67352;SDS011;54238;52.278;21.056;2022-10-22T09:41:24;38.70;;;19.90;;
67352;SDS011;54238;52.278;21.056;2022-10-22T09:43:56;34.80;;;20.40;;
67352;SDS011;54238;52.278;21.056;2022-10-22T09:46:28;28.60;;;19.50;;
67352;SDS011;54238;52.278;21.056;2022-10-22T09:49:09;32.30;;;20.30;;
67352;SDS011;54238;52.278;21.056;2022-10-22T09:51:57;34.10;;;20.90;;
67352;SDS011;54238;52.278;21.056;2022-10-22T09:57:16;34.90;;;22.40;;
67352;SDS011;54238;52.278;21.056;2022-10-22T09:59:49;34.00;;;20.00;;
67352;SDS011;54238;52.278;21.056;2022-10-22T10:02:26;36.30;;;20.40;;
67352;SDS011;54238;52.278;21.056;2022-10-22T10:05:00;27.80;;;16.10;;
67352;SDS011;54238;52.278;21.056;2022-10-22T10:07:32;37.50;;;21.20;;
67352;SDS011;54238;52.278;21.056;2022-10-22T10:10:16;34.10;;;20.50;;
67352;SDS011;54238;52.278;21.056;2022-10-22T10:19:19;33.40;;;20.50;;
67352;SDS011;54238;52.278;21.056;2022-10-22T10:22:53;34.50;;;21.50;;
67352;SDS011;54238;52.278;21.056;2022-10-22T10:25:47;35.60;;;19.00;;
67352;SDS011;54238;52.278;21.056;2022-10-22T10:31:36;37.70;;;23.40;;
67352;SDS011;54238;52.278;21.056;2022-10-22T10:37:16;38.60;;;22.50;;
67352;SDS011;54238;52.278;21.056;2022-10-22T10:43:09;25.20;;;14.60;;
67352;SDS011;54238;52.278;21.056;2022-10-22T10:54:34;28.70;;;13.70;;
67352;SDS011;54238;52.278;21.056;2022-10-22T10:57:21;36.90;;;23.00;;
67352;SDS011;54238;52.278;21.056;2022-10-22T11:00:09;34.40;;;20.10;;
67352;SDS011;54238;52.278;21.056;2022-10-22T11:03:08;38.20;;;21.20;;
67352;SDS011;54238;52.278;21.056;2022-10-22T11:06:26;30.50;;;20.50;;
67352;SDS011;54238;52.278;21.056;2022-10-22T11:09:28;35.90;;;21.50;;
67352;SDS011;54238;52.278;21.056;2022-10-22T11:12:03;28.50;;;17.70;;
67352;SDS011;54238;52.278;21.056;2022-10-22T11:15:23;36.00;;;23.30;;
67352;SDS011;54238;52.278;21.056;2022-10-22T11:17:46;35.40;;;23.50;;
67352;SDS011;54238;52.278;21.056;2022-10-22T11:20:19;37.70;;;22.80;;
67352;SDS011;54238;52.278;21.056;2022-10-22T11:23:01;36.70;;;22.30;;
67352;SDS011;54238;52.278;21.056;2022-10-22T11:25:42;39.40;;;22.80;;
67352;SDS011;54238;52.278;21.056;2022-10-22T11:28:24;36.00;;;23.80;;
67352;SDS011;54238;52.278;21.056;2022-10-22T11:31:09;36.00;;;23.50;;
67352;SDS011;54238;52.278;21.056;2022-10-22T11:34:05;31.00;;;20.80;;
67352;SDS011;54238;52.278;21.056;2022-10-22T11:36:33;35.30;;;23.50;;
67352;SDS011;54238;52.278;21.056;2022-10-22T11:39:01;39.90;;;23.80;;
67352;SDS011;54238;52.278;21.056;2022-10-22T11:41:34;38.30;;;22.00;;
67352;SDS011;54238;52.278;21.056;2022-10-22T11:46:46;46.20;;;25.10;;
67352;SDS011;54238;52.278;21.056;2022-10-22T11:51:53;35.90;;;22.30;;
67352;SDS011;54238;52.278;21.056;2022-10-22T11:54:47;40.90;;;23.60;;
67352;SDS011;54238;52.278;21.056;2022-10-22T11:57:19;43.30;;;23.10;;
67352;SDS011;54238;52.278;21.056;2022-10-22T11:59:59;37.30;;;23.30;;
67352;SDS011;54238;52.278;21.056;2022-10-22T12:02:38;43.20;;;26.50;;
67352;SDS011;54238;52.278;21.056;2022-10-22T12:07:54;45.00;;;26.10;;
67352;SDS011;54238;52.278;21.056;2022-10-22T12:10:54;51.10;;;24.90;;
67352;SDS011;54238;52.278;21.056;2022-10-22T12:13:30;40.70;;;24.00;;
67352;SDS011;54238;52.278;21.056;2022-10-22T12:16:02;50.60;;;26.60;;
67352;SDS011;54238;52.278;21.056;2022-10-22T12:18:40;51.60;;;27.90;;
67352;SDS011;54238;52.278;21.056;2022-10-22T12:21:12;48.40;;;26.80;;
67352;SDS011;54238;52.278;21.056;2022-10-22T12:23:44;53.60;;;27.90;;
67352;SDS011;54238;52.278;21.056;2022-10-22T12:26:26;46.30;;;26.50;;
67352;SDS011;54238;52.278;21.056;2022-10-22T12:28:58;53.00;;;29.00;;
67352;SDS011;54238;52.278;21.056;2022-10-22T12:31:35;45.70;;;28.30;;
67352;SDS011;54238;52.278;21.056;2022-10-22T12:34:05;47.80;;;28.10;;
67352;SDS011;54238;52.278;21.056;2022-10-22T12:36:35;49.90;;;25.80;;
67352;SDS011;54238;52.278;21.056;2022-10-22T12:39:11;52.10;;;29.20;;
67352;SDS011;54238;52.278;21.056;2022-10-22T12:41:46;47.00;;;27.70;;
67352;SDS011;54238;52.278;21.056;2022-10-22T12:44:15;54.00;;;26.40;;
67352;SDS011;54238;52.278;21.056;2022-10-22T12:46:47;50.20;;;25.50;;
67352;SDS011;54238;52.278;21.056;2022-10-22T12:49:22;41.30;;;25.10;;
67352;SDS011;54238;52.278;21.056;2022-10-22T12:52:02;43.30;;;23.40;;
67352;SDS011;54238;52.278;21.056;2022-10-22T12:54:34;41.30;;;23.50;;
67352;SDS011;54238;52.278;21.056;2022-10-22T12:57:04;43.60;;;23.80;;
67352;SDS011;54238;52.278;21.056;2022-10-22T12:59:40;41.80;;;26.30;;
67352;SDS011;54238;52.278;21.056;2022-10-22T13:02:22;47.90;;;25.00;;
67352;SDS011;54238;52.278;21.056;2022-10-22T13:05:31;44.20;;;25.90;;
67352;SDS011;54238;52.278;21.056;2022-10-22T13:08:07;43.40;;;24.40;;
67352;SDS011;54238;52.278;21.056;2022-10-22T13:10:40;38.00;;;23.30;;
67352;SDS011;54238;52.278;21.056;2022-10-22T13:13:29;39.90;;;23.50;;
67352;SDS011;54238;52.278;21.056;2022-10-22T13:16:20;38.20;;;22.10;;
67352;SDS011;54238;52.278;21.056;2022-10-22T13:18:53;39.40;;;23.00;;
67352;SDS011;54238;52.278;21.056;2022-10-22T13:21:36;36.20;;;23.00;;
67352;SDS011;54238;52.278;21.056;2022-10-22T13:24:22;42.90;;;26.20;;
67352;SDS011;54238;52.278;21.056;2022-10-22T13:26:52;32.60;;;19.40;;
67352;SDS011;54238;52.278;21.056;2022-10-22T13:29:23;34.70;;;21.80;;
67352;SDS011;54238;52.278;21.056;2022-10-22T13:31:53;33.60;;;21.90;;
67352;SDS011;54238;52.278;21.056;2022-10-22T13:34:23;42.10;;;25.10;;
67352;SDS011;54238;52.278;21.056;2022-10-22T13:36:52;42.40;;;24.90;;
67352;SDS011;54238;52.278;21.056;2022-10-22T13:39:20;37.20;;;21.60;;
67352;SDS011;54238;52.278;21.056;2022-10-22T13:41:50;37.80;;;23.00;;
67352;SDS011;54238;52.278;21.056;2022-10-22T13:44:17;36.00;;;21.80;;
67352;SDS011;54238;52.278;21.056;2022-10-22T13:46:48;38.10;;;23.90;;
67352;SDS011;54238;52.278;21.056;2022-10-22T13:49:19;37.30;;;21.60;;
67352;SDS011;54238;52.278;21.056;2022-10-22T13:51:51;38.80;;;25.60;;
67352;SDS011;54238;52.278;21.056;2022-10-22T13:54:22;46.30;;;28.60;;
67352;SDS011;54238;52.278;21.056;2022-10-22T13:56:53;48.50;;;29.30;;
67352;SDS011;54238;52.278;21.056;2022-10-22T13:59:22;41.20;;;27.40;;
67352;SDS011;54238;52.278;21.056;2022-10-22T14:01:51;42.30;;;25.40;;
67352;SDS011;54238;52.278;21.056;2022-10-22T14:04:27;37.10;;;24.50;;
67352;SDS011;54238;52.278;21.056;2022-10-22T14:06:54;42.90;;;25.40;;
67352;SDS011;54238;52.278;21.056;2022-10-22T14:09:26;35.30;;;22.60;;
67352;SDS011;54238;52.278;21.056;2022-10-22T14:11:53;38.40;;;26.10;;
67352;SDS011;54238;52.278;21.056;2022-10-22T14:14:24;38.00;;;26.80;;
67352;SDS011;54238;52.278;21.056;2022-10-22T14:16:56;37.20;;;23.50;;
67352;SDS011;54238;52.278;21.056;2022-10-22T14:19:25;38.00;;;23.70;;
67352;SDS011;54238;52.278;21.056;2022-10-22T14:21:56;41.70;;;25.40;;
67352;SDS011;54238;52.278;21.056;2022-10-22T14:24:23;45.90;;;25.90;;
67352;SDS011;54238;52.278;21.056;2022-10-22T14:26:50;42.00;;;26.10;;
67352;SDS011;54238;52.278;21.056;2022-10-22T14:29:17;43.50;;;25.30;;
67352;SDS011;54238;52.278;21.056;2022-10-22T14:31:50;45.60;;;26.80;;
67352;SDS011;54238;52.278;21.056;2022-10-22T14:34:16;38.40;;;24.30;;
67352;SDS011;54238;52.278;21.056;2022-10-22T14:36:44;40.10;;;25.40;;
67352;SDS011;54238;52.278;21.056;2022-10-22T14:39:13;43.00;;;27.70;;
67352;SDS011;54238;52.278;21.056;2022-10-22T14:41:42;43.60;;;27.40;;
67352;SDS011;54238;52.278;21.056;2022-10-22T14:44:12;41.20;;;27.80;;
67352;SDS011;54238;52.278;21.056;2022-10-22T14:46:41;44.20;;;28.00;;
67352;SDS011;54238;52.278;21.056;2022-10-22T14:49:09;48.60;;;26.50;;
67352;SDS011;54238;52.278;21.056;2022-10-22T14:51:41;44.10;;;27.40;;
67352;SDS011;54238;52.278;21.056;2022-10-22T14:54:08;45.70;;;29.70;;
67352;SDS011;54238;52.278;21.056;2022-10-22T14:56:38;48.10;;;29.20;;
67352;SDS011;54238;52.278;21.056;2022-10-22T14:59:07;43.20;;;27.40;;
67352;SDS011;54238;52.278;21.056;2022-10-22T15:01:34;53.80;;;26.20;;
67352;SDS011;54238;52.278;21.056;2022-10-22T15:04:03;47.80;;;29.20;;
67352;SDS011;54238;52.278;21.056;2022-10-22T15:06:34;49.00;;;30.10;;
67352;SDS011;54238;52.278;21.056;2022-10-22T15:09:03;41.30;;;28.50;;
67352;SDS011;54238;52.278;21.056;2022-10-22T15:11:33;49.90;;;32.20;;
67352;SDS011;54238;52.278;21.056;2022-10-22T15:14:02;45.50;;;27.30;;
67352;SDS011;54238;52.278;21.056;2022-10-22T15:16:34;44.90;;;28.20;;
67352;SDS011;54238;52.278;21.056;2022-10-22T15:19:03;56.40;;;30.90;;
67352;SDS011;54238;52.278;21.056;2022-10-22T15:21:30;47.80;;;30.80;;
67352;SDS011;54238;52.278;21.056;2022-10-22T15:23:58;51.40;;;29.30;;
67352;SDS011;54238;52.278;21.056;2022-10-22T15:26:26;50.30;;;31.50;;
67352;SDS011;54238;52.278;21.056;2022-10-22T15:28:55;50.40;;;31.00;;
67352;SDS011;54238;52.278;21.056;2022-10-22T15:31:48;52.60;;;29.90;;
67352;SDS011;54238;52.278;21.056;2022-10-22T15:34:22;49.70;;;29.80;;
67352;SDS011;54238;52.278;21.056;2022-10-22T15:36:58;48.30;;;30.60;;
67352;SDS011;54238;52.278;21.056;2022-10-22T15:39:27;45.10;;;30.90;;
67352;SDS011;54238;52.278;21.056;2022-10-22T15:41:59;43.80;;;28.70;;
67352;SDS011;54238;52.278;21.056;2022-10-22T15:44:30;45.80;;;29.60;;
67352;SDS011;54238;52.278;21.056;2022-10-22T15:46:58;44.80;;;28.70;;
67352;SDS011;54238;52.278;21.056;2022-10-22T15:49:27;54.10;;;31.00;;
67352;SDS011;54238;52.278;21.056;2022-10-22T15:51:54;58.90;;;32.20;;
67352;SDS011;54238;52.278;21.056;2022-10-22T15:54:26;46.10;;;25.80;;
67352;SDS011;54238;52.278;21.056;2022-10-22T15:56:56;53.90;;;29.80;;
67352;SDS011;54238;52.278;21.056;2022-10-22T15:59:28;55.30;;;31.90;;
67352;SDS011;54238;52.278;21.056;2022-10-22T16:01:58;65.30;;;32.80;;
67352;SDS011;54238;52.278;21.056;2022-10-22T16:04:24;47.50;;;28.30;;
67352;SDS011;54238;52.278;21.056;2022-10-22T16:06:52;60.00;;;33.60;;
67352;SDS011;54238;52.278;21.056;2022-10-22T16:09:27;47.70;;;29.40;;
67352;SDS011;54238;52.278;21.056;2022-10-22T16:11:54;55.60;;;32.90;;